createdAt,value
2018-06-09T00:02:04.549Z,19.9
2018-06-09T00:07:04.950Z,19.8
2018-06-09T00:12:04.111Z,19.6
2018-06-09T00:17:08.659Z,19.6
2018-06-09T00:22:04.719Z,19.3
2018-06-09T00:27:04.733Z,19.3
2018-06-09T00:32:04.949Z,19.2
2018-06-09T00:37:04.723Z,19.1
2018-06-09T00:42:04.486Z,19.0
2018-06-09T00:47:04.995Z,19.0
2018-06-09T00:52:04.601Z,19.0
2018-06-09T00:57:04.542Z,18.9
2018-06-09T01:02:04.885Z,18.9
2018-06-09T01:07:04.731Z,18.9
2018-06-09T01:12:04.713Z,18.9
2018-06-09T01:17:08.656Z,18.9
2018-06-09T01:22:04.253Z,18.9
2018-06-09T01:27:04.879Z,18.8
2018-06-09T01:32:05.120Z,18.7
2018-06-09T01:37:04.697Z,18.5
2018-06-09T01:42:04.635Z,18.4
2018-06-09T01:47:04.770Z,18.4
2018-06-09T01:52:04.511Z,18.4
2018-06-09T01:57:04.428Z,18.3
2018-06-09T02:02:04.516Z,18.5
2018-06-09T02:07:04.896Z,18.5
2018-06-09T02:12:04.694Z,18.5
2018-06-09T02:17:08.891Z,18.2
2018-06-09T02:22:04.824Z,18.2
2018-06-09T02:27:04.733Z,18.3
2018-06-09T02:32:05.269Z,18.3
2018-06-09T02:37:04.384Z,18.1
2018-06-09T02:42:04.670Z,18.1
2018-06-09T02:47:12.172Z,18.1
2018-06-09T02:52:04.728Z,18.2
2018-06-09T02:57:04.268Z,18.2
2018-06-09T03:02:14.389Z,18.3
2018-06-09T03:07:04.531Z,18.3
2018-06-09T03:12:04.111Z,18.3
2018-06-09T03:17:12.385Z,18.3
2018-06-09T03:22:04.121Z,18.4
2018-06-09T03:27:04.259Z,18.3
2018-06-09T03:32:13.029Z,18.4
2018-06-09T03:37:04.292Z,18.4
2018-06-09T03:42:04.436Z,18.5
2018-06-09T03:47:13.534Z,18.5
2018-06-09T03:52:04.207Z,18.6
2018-06-09T03:57:04.178Z,18.7
2018-06-09T04:02:14.464Z,18.7
2018-06-09T04:07:04.701Z,18.7
2018-06-09T04:12:04.521Z,18.9
2018-06-09T04:17:15.385Z,18.9
2018-06-09T04:22:04.173Z,19.0
2018-06-09T04:27:04.379Z,19.0
2018-06-09T04:32:12.548Z,19.0
2018-06-09T04:37:04.475Z,19.1
2018-06-09T04:42:04.005Z,19.2
2018-06-09T04:47:04.963Z,19.3
2018-06-09T04:52:04.273Z,19.4
2018-06-09T04:57:04.611Z,19.8
2018-06-09T05:02:18.166Z,19.7
2018-06-09T05:07:04.336Z,19.9
2018-06-09T05:12:04.168Z,20.0
2018-06-09T05:17:13.782Z,20.2
2018-06-09T05:22:04.440Z,20.2
2018-06-09T05:27:04.565Z,20.3
2018-06-09T05:32:13.409Z,20.5
2018-06-09T05:37:04.346Z,20.7
2018-06-09T05:42:04.144Z,20.8
2018-06-09T05:47:14.504Z,20.9
2018-06-09T05:52:04.293Z,20.8
2018-06-09T05:57:04.404Z,20.8
2018-06-09T06:02:14.283Z,20.8
2018-06-09T06:07:04.200Z,20.9
2018-06-09T06:12:04.549Z,21.1
2018-06-09T06:17:17.156Z,21.3
2018-06-09T06:22:04.740Z,21.5
2018-06-09T06:27:04.428Z,21.7
2018-06-09T06:32:11.274Z,22.1
2018-06-09T06:37:04.601Z,22.3
2018-06-09T06:42:04.269Z,22.9
2018-06-09T06:47:17.120Z,23.7
2018-06-09T06:52:04.405Z,24.3
2018-06-09T06:57:04.513Z,24.9
2018-06-09T07:02:11.957Z,25.4
2018-06-09T07:07:04.287Z,25.2
2018-06-09T07:12:04.503Z,25.2
2018-06-09T07:17:13.306Z,25.3
2018-06-09T07:22:04.248Z,25.6
2018-06-09T07:27:04.367Z,25.5
2018-06-09T07:32:14.019Z,25.9
2018-06-09T07:37:04.350Z,25.9
2018-06-09T07:42:04.069Z,26.1
2018-06-09T07:47:14.454Z,26.1
2018-06-09T07:52:04.236Z,26.0
2018-06-09T07:57:04.502Z,26.4
2018-06-09T08:02:11.801Z,26.7
2018-06-09T08:07:04.488Z,27.0
2018-06-09T08:12:04.320Z,26.9
2018-06-09T08:17:15.517Z,27.4
2018-06-09T08:22:04.832Z,27.5
2018-06-09T08:27:04.647Z,27.6
2018-06-09T08:32:15.755Z,27.6
2018-06-09T08:37:04.664Z,27.6
2018-06-09T08:42:04.408Z,27.6
2018-06-09T08:47:14.232Z,28.0
2018-06-09T08:52:04.151Z,28.0
2018-06-09T08:57:04.452Z,28.1
2018-06-09T09:02:15.858Z,28.4
2018-06-09T09:07:04.222Z,28.9
2018-06-09T09:12:04.624Z,28.9
2018-06-09T09:17:11.977Z,29.3
2018-06-09T09:22:04.739Z,29.6
2018-06-09T09:27:04.589Z,29.6
2018-06-09T09:32:11.620Z,29.6
2018-06-09T09:37:04.312Z,30.1
2018-06-09T09:42:04.253Z,30.5
2018-06-09T09:47:18.626Z,31.2
2018-06-09T09:52:04.358Z,31.3
2018-06-09T09:57:04.289Z,31.7
2018-06-09T10:02:16.467Z,32.1
2018-06-09T10:07:04.749Z,32.5
2018-06-09T10:12:04.818Z,32.9
2018-06-09T10:17:14.621Z,32.9
2018-06-09T10:22:04.520Z,32.6
2018-06-09T10:27:04.434Z,32.2
2018-06-09T10:32:16.950Z,32.2
2018-06-09T10:37:04.699Z,32.7
2018-06-09T10:42:04.305Z,33.7
2018-06-09T10:47:10.235Z,34.3
2018-06-09T10:52:04.460Z,35.0
2018-06-09T10:57:04.235Z,35.3
2018-06-09T11:02:14.515Z,35.8
2018-06-09T11:07:04.385Z,35.7
2018-06-09T11:12:04.332Z,34.8
2018-06-09T11:17:26.685Z,34.8
2018-06-09T11:22:04.874Z,34.3
2018-06-09T11:27:04.811Z,33.5
2018-06-09T11:32:13.783Z,33.4
2018-06-09T11:37:04.115Z,33.4
2018-06-09T11:42:04.272Z,33.3
2018-06-09T11:47:14.142Z,33.4
2018-06-09T11:52:04.581Z,33.4
2018-06-09T11:57:04.349Z,33.2
2018-06-09T12:02:14.142Z,33.0
2018-06-09T12:07:04.759Z,32.3
2018-06-09T12:12:04.679Z,31.6
2018-06-09T12:17:16.690Z,30.0
2018-06-09T12:22:04.903Z,28.4
2018-06-09T12:27:04.581Z,27.2
2018-06-09T12:32:14.284Z,25.7
2018-06-09T12:37:04.246Z,25.6
2018-06-09T12:42:04.414Z,25.1
2018-06-09T12:47:10.171Z,24.2
2018-06-09T12:52:04.218Z,23.2
2018-06-09T12:57:04.467Z,22.4
2018-06-09T13:02:13.762Z,21.8
2018-06-09T13:07:04.289Z,21.7
2018-06-09T13:12:04.339Z,21.7
2018-06-09T13:17:13.809Z,21.6
2018-06-09T13:22:04.761Z,21.6
2018-06-09T13:27:04.536Z,21.7
2018-06-09T13:32:11.513Z,21.8
2018-06-09T13:37:04.450Z,22.1
2018-06-09T13:42:04.481Z,22.5
2018-06-09T13:47:14.525Z,22.7
2018-06-09T13:52:04.239Z,23.2
2018-06-09T13:57:04.507Z,23.8
2018-06-09T14:02:13.445Z,24.3
2018-06-09T14:07:04.235Z,24.8
2018-06-09T14:12:04.667Z,25.2
2018-06-09T14:17:14.411Z,25.6
2018-06-09T14:22:04.271Z,25.8
2018-06-09T14:27:04.321Z,26.2
2018-06-09T14:32:14.174Z,26.2
2018-06-09T14:37:04.367Z,26.7
2018-06-09T14:42:04.364Z,27.3
2018-06-09T14:47:13.561Z,27.3
2018-06-09T14:52:04.247Z,27.1
2018-06-09T14:57:04.310Z,26.7
2018-06-09T15:02:12.986Z,26.2
2018-06-09T15:07:04.579Z,26.0
2018-06-09T15:12:04.430Z,26.0
2018-06-09T15:17:11.597Z,26.3
2018-06-09T15:22:04.176Z,26.4
2018-06-09T15:27:04.274Z,26.5
2018-06-09T15:32:17.117Z,26.8
2018-06-09T15:37:04.422Z,27.0
2018-06-09T15:42:04.179Z,27.2
2018-06-09T15:47:13.836Z,27.3
2018-06-09T15:52:04.304Z,27.5
2018-06-09T15:57:04.321Z,28.5
2018-06-09T16:02:14.465Z,29.7
2018-06-09T16:07:04.361Z,29.7
2018-06-09T16:12:04.420Z,29.7
2018-06-09T16:17:14.236Z,29.7
2018-06-09T16:22:04.883Z,32.1
2018-06-09T16:27:04.863Z,32.1
2018-06-09T16:32:16.825Z,31.9
2018-06-09T16:37:04.222Z,30.4
2018-06-09T16:42:04.348Z,29.3
2018-06-09T16:47:13.341Z,28.6
2018-06-09T16:52:04.237Z,27.2
2018-06-09T16:57:04.488Z,27.1
2018-06-09T17:02:14.694Z,26.5
2018-06-09T17:07:04.089Z,26.2
2018-06-09T17:12:04.513Z,25.9
2018-06-09T17:17:13.886Z,25.7
2018-06-09T17:22:04.304Z,25.6
2018-06-09T17:27:04.327Z,25.4
2018-06-09T17:32:13.671Z,25.3
2018-06-09T17:37:04.437Z,25.1
2018-06-09T17:42:04.271Z,25.0
2018-06-09T17:47:12.887Z,25.0
2018-06-09T17:52:04.290Z,25.0
2018-06-09T17:57:04.446Z,25.6
2018-06-09T18:02:13.464Z,26.5
2018-06-09T18:07:04.653Z,27.2
2018-06-09T18:12:04.362Z,26.6
2018-06-09T18:17:13.480Z,26.6
2018-06-09T18:22:04.690Z,26.1
2018-06-09T18:27:04.366Z,26.0
2018-06-09T18:32:13.756Z,25.2
2018-06-09T18:37:04.913Z,25.2
2018-06-09T18:42:04.656Z,24.7
2018-06-09T18:47:15.149Z,24.1
2018-06-09T18:52:04.754Z,23.5
2018-06-09T18:57:04.208Z,23.0
2018-06-09T19:02:13.903Z,22.7
2018-06-09T19:07:04.880Z,22.5
2018-06-09T19:12:04.685Z,22.3
2018-06-09T19:17:14.912Z,22.2
2018-06-09T19:22:04.647Z,22.1
2018-06-09T19:27:04.361Z,21.9
2018-06-09T19:32:10.209Z,21.7
2018-06-09T19:37:04.101Z,21.6
2018-06-09T19:42:04.036Z,21.4
2018-06-09T19:47:11.631Z,21.3
2018-06-09T19:52:04.044Z,21.3
2018-06-09T19:57:04.242Z,21.2
2018-06-09T20:02:14.360Z,21.1
2018-06-09T20:07:04.404Z,21.0
2018-06-09T20:12:04.892Z,21.0
2018-06-09T20:17:05.394Z,21.0
2018-06-09T20:22:04.191Z,20.9
2018-06-09T20:27:04.552Z,20.9
2018-06-09T20:32:05.424Z,20.8
2018-06-09T20:37:04.382Z,20.7
2018-06-09T20:42:04.647Z,20.5
2018-06-09T20:47:04.129Z,20.4
2018-06-09T20:52:04.444Z,20.2
2018-06-09T20:57:04.795Z,20.0
2018-06-09T21:02:04.516Z,19.7
2018-06-09T21:07:04.721Z,19.5
2018-06-09T21:12:04.274Z,19.5
2018-06-09T21:17:08.364Z,19.5
2018-06-09T21:22:04.327Z,19.5
2018-06-09T21:27:04.704Z,19.4
2018-06-09T21:32:04.115Z,19.4
2018-06-09T21:37:04.186Z,19.3
2018-06-09T21:42:04.528Z,19.3
2018-06-09T21:47:04.829Z,19.3
2018-06-09T21:52:04.184Z,19.3
2018-06-09T21:57:04.445Z,19.4
2018-06-09T22:02:04.244Z,19.5
2018-06-09T22:07:04.420Z,19.3
2018-06-09T22:12:04.490Z,19.3
2018-06-09T22:22:17.886Z,19.2
2018-06-09T22:27:17.257Z,19.2
2018-06-09T22:32:17.365Z,19.3
2018-06-09T22:37:17.229Z,19.3
2018-06-09T22:42:17.095Z,19.4
2018-06-09T22:47:17.253Z,19.5
2018-06-09T22:52:16.436Z,19.7
2018-06-09T22:57:16.919Z,19.7
2018-06-09T23:02:16.988Z,19.8
2018-06-09T23:07:16.557Z,19.8
2018-06-09T23:12:04.092Z,19.9
2018-06-09T23:17:08.807Z,19.9
2018-06-09T23:22:03.951Z,19.8
2018-06-09T23:27:04.654Z,19.9
2018-06-09T23:32:04.629Z,19.9
2018-06-09T23:37:04.601Z,19.9
2018-06-09T23:42:04.295Z,19.9
2018-06-09T23:47:04.250Z,19.9
2018-06-09T23:52:04.366Z,19.9
2018-06-09T23:57:04.385Z,19.9
